Lulu Pass Weather Station

This weather station provides temperature, relative humidity (RH), wind speed, gust or max wind speed, and wind direction at 10014ft near Lulu Pass at the head of Fisher Creek. This data can be used with temperature and precipitation data from the Fisher Creek SNOTEL site.

This weather station was purchased by the Friends of the Avalanche Center.

If the data has not been updated recently you can view it directly on datagarrison.com

Elevation
10014ft
Jump to table bottom
Date Time Temperature
deg F
RH, % Wind Speed Wind Gust Wind Direction
01/25/20 01:00 18.2 97 3 9 W - 248
01/25/20 00:00 18.3 97 4 9 W - 257
01/24/20 23:00 18.7 97 4 7 W - 272
01/24/20 22:00 18.8 97 3 10 W - 265
01/24/20 21:00 19.4 97 3 7 W - 257
01/24/20 20:00 19.5 97 3 6 SW - 246
01/24/20 19:00 19.6 97 3 7 W - 258
01/24/20 18:00 19.8 97 4 10 SW - 239
01/24/20 17:00 20.1 97 3 7 SW - 237
01/24/20 16:00 21.0 97 3 8 SW - 234
01/24/20 15:00 21.0 97 3 8 SW - 246
01/24/20 14:00 21.4 97 3 8 SW - 226
01/24/20 13:00 23.8 98 3 6 SW - 226
01/24/20 12:00 22.1 97 4 8 SW - 243
01/24/20 11:00 21.8 97 4 8 SW - 247
01/24/20 10:00 21.7 97 3 9 W - 254
01/24/20 09:00 20.3 97 3 8 W - 250
01/24/20 08:00 19.5 97 4 11 W - 265
01/24/20 07:00 18.8 97 4 12 W - 251
01/24/20 06:00 18.4 97 5 12 W - 254
01/24/20 05:00 18.3 97 5 14 W - 253
01/24/20 04:00 18.1 96 3 13 W - 260
01/24/20 03:00 17.9 96 3 6 SW - 239
01/24/20 02:00 17.9 96 3 6 SW - 232
01/24/20 01:00 17.6 96 2 5 SW - 243
01/24/20 00:00 17.6 96 1 4 W - 261
01/23/20 23:00 17.7 96 3 7 W - 270
01/23/20 22:00 17.7 96 3 5 W - 279
01/23/20 21:00 17.7 96 3 7 NW - 295
01/23/20 20:00 18.0 96 4 7 W - 285
01/23/20 19:00 17.8 96 2 5 W - 274
01/23/20 18:00 17.4 96 3 7 N - 347
01/23/20 17:00 16.8 96 7 11 N - 340
01/23/20 16:00 17.4 96 14 21 NW - 321
01/23/20 15:00 17.4 96 12 21 NW - 317
01/23/20 14:00 17.5 96 10 15 NW - 312
01/23/20 13:00 16.3 96 13 19 NW - 314
01/23/20 12:00 15.6 96 16 21 NW - 319
01/23/20 11:00 15.1 95 19 22 NW - 319
01/23/20 10:00 14.1 95 17 24 NW - 326
01/23/20 09:00 11.9 94 14 18 NW - 337
01/23/20 08:00 10.4 93 11 17 N - 340
01/23/20 07:00 9.7 93 10 14 NW - 314
01/23/20 06:00 9.2 93 10 16 NW - 319
01/23/20 05:00 9.0 93 10 15 NW - 337
01/23/20 04:00 9.0 93 13 19 N - 338
01/23/20 03:00 8.6 93 13 17 NW - 323
01/23/20 02:00 8.1 93 10 14 NW - 323
01/23/20 01:00 8.2 93 8 12 NW - 303
01/23/20 00:00 8.2 93 10 16 NW - 302